Time;durP1;ratioP1;P1;durP2;ratioP2;P2;SDS_P1;SDS_P2;PMS_P1;PMS_P2;Temp;Humidity;BMP_temperature;BMP_pressure;BME280_temperature;BME280_humidity;BME280_pressure;Samples;Min_cycle;Max_cycle;Signal;HPM_P1;HPM_P2
2023/03/21 00:01:07;;;;;;;88.25;26.70;;;9.20;99.90;;;;;;5048670;28;20052;-64
2023/03/21 00:03:45;;;;;;;85.43;27.40;;;9.20;99.90;;;;;;5048380;28;20037;-64
2023/03/21 00:06:27;;;;;;;76.55;26.60;;;9.20;99.90;;;;;;5049210;28;20049;-63
2023/03/21 00:08:53;;;;;;;71.88;24.73;;;9.20;99.90;;;;;;5048732;28;20131;-64
2023/03/21 00:11:23;;;;;;;68.10;24.27;;;9.20;99.90;;;;;;5049618;28;20052;-64
2023/03/21 00:13:57;;;;;;;75.22;26.58;;;9.20;99.90;;;;;;5031875;28;20832;-64
2023/03/21 00:16:25;;;;;;;65.72;24.27;;;9.20;99.90;;;;;;5047552;28;20106;-64
2023/03/21 00:18:53;;;;;;;76.53;24.83;;;9.20;99.90;;;;;;5047178;28;20053;-64
2023/03/21 00:21:31;;;;;;;71.80;25.60;;;9.20;99.90;;;;;;5047268;28;20505;-64
2023/03/21 00:24:18;;;;;;;66.97;24.35;;;9.20;99.90;;;;;;5049414;28;20507;-64
2023/03/21 00:26:55;;;;;;;62.72;23.77;;;9.30;99.90;;;;;;5049663;28;20103;-64
2023/03/21 00:29:21;;;;;;;66.93;25.63;;;9.30;99.90;;;;;;5047701;28;20095;-64
2023/03/21 00:32:07;;;;;;;69.70;25.17;;;9.20;99.90;;;;;;5048288;28;20167;-64
2023/03/21 00:34:37;;;;;;;75.40;25.85;;;9.30;99.90;;;;;;5049421;28;20475;-64
2023/03/21 00:37:06;;;;;;;60.50;24.67;;;9.30;99.90;;;;;;5015538;28;20099;-64
2023/03/21 00:39:34;;;;;;;59.88;25.85;;;9.30;99.90;;;;;;5031927;28;20504;-64
2023/03/21 00:42:01;;;;;;;59.63;25.45;;;9.30;99.90;;;;;;5049216;28;20128;-64
2023/03/21 00:44:35;;;;;;;64.68;26.58;;;9.30;99.90;;;;;;5047310;28;20142;-64
2023/03/21 00:47:06;;;;;;;54.80;24.83;;;9.30;99.90;;;;;;5051381;28;20509;-64
2023/03/21 00:49:37;;;;;;;71.82;27.90;;;9.30;99.90;;;;;;5052397;28;20509;-64
2023/03/21 00:52:07;;;;;;;57.13;26.80;;;9.30;99.90;;;;;;5051823;28;20113;-64
2023/03/21 00:54:36;;;;;;;64.47;25.85;;;9.30;99.90;;;;;;5053035;28;20373;-64
2023/03/21 00:57:07;;;;;;;56.38;24.88;;;9.30;99.90;;;;;;5051077;28;20044;-64
2023/03/21 00:59:36;;;;;;;56.55;24.15;;;9.30;99.90;;;;;;5053082;28;20040;-64
2023/03/21 01:02:13;;;;;;;52.45;24.95;;;9.30;99.90;;;;;;5036400;28;20071;-64
2023/03/21 01:04:44;;;;;;;56.05;24.52;;;9.30;99.90;;;;;;5050886;28;20053;-64
2023/03/21 01:07:20;;;;;;;52.72;25.55;;;9.30;99.90;;;;;;5052243;28;20158;-64
2023/03/21 01:09:49;;;;;;;55.33;25.23;;;9.30;99.90;;;;;;5051471;28;20041;-63
2023/03/21 01:12:16;;;;;;;56.22;25.80;;;9.30;99.90;;;;;;5084493;28;20028;-64
2023/03/21 01:14:52;;;;;;;51.10;24.52;;;9.30;99.90;;;;;;5051356;28;20064;-64
2023/03/21 01:17:38;;;;;;;57.65;24.67;;;9.30;99.90;;;;;;5057536;28;20036;-64
2023/03/21 01:20:05;;;;;;;46.20;23.48;;;9.30;99.90;;;;;;5070728;28;20048;-64
2023/03/21 01:22:33;;;;;;;50.22;24.58;;;9.30;99.90;;;;;;5072488;28;20052;-64
2023/03/21 01:25:01;;;;;;;48.30;23.58;;;9.30;99.90;;;;;;5070270;28;20511;-64
2023/03/21 01:27:29;;;;;;;48.42;24.42;;;9.30;99.90;;;;;;5054255;28;20136;-64
2023/03/21 01:29:59;;;;;;;47.15;23.50;;;9.30;99.90;;;;;;5054915;28;20057;-64
2023/03/21 01:32:36;;;;;;;52.17;24.83;;;9.30;99.90;;;;;;5071671;28;20044;-64
2023/03/21 01:35:05;;;;;;;44.53;24.75;;;9.30;99.90;;;;;;5071983;28;20056;-64
2023/03/21 01:37:31;;;;;;;44.88;23.80;;;9.30;99.90;;;;;;5054464;28;20044;-64
2023/03/21 01:40:02;;;;;;;;;;;9.30;99.90;;;;;;5070505;28;20052;-64
2023/03/21 01:42:29;;;;;;;41.58;23.98;;;9.30;99.90;;;;;;5070705;28;19916;-64
2023/03/21 01:45:47;;;;;;;38.53;22.48;;;9.30;99.90;;;;;;5071792;28;20496;-64
2023/03/21 01:48:17;;;;;;;38.25;20.63;;;9.30;99.90;;;;;;5070797;28;20041;-64
2023/03/21 01:50:50;;;;;;;42.47;22.08;;;9.40;99.90;;;;;;5072073;28;20097;-64
2023/03/21 01:53:27;;;;;;;38.47;21.00;;;9.30;99.90;;;;;;5053388;28;20045;-64
2023/03/21 01:56:00;;;;;;;34.33;19.17;;;9.30;99.90;;;;;;5070736;28;20048;-64
2023/03/21 01:58:28;;;;;;;32.38;19.52;;;9.40;99.90;;;;;;5071706;28;20044;-64
2023/03/21 02:00:55;;;;;;;30.73;17.75;;;9.30;99.90;;;;;;5069810;28;20516;-64
2023/03/21 02:03:28;;;;;;;33.88;19.35;;;9.30;99.90;;;;;;5069259;28;20045;-64
2023/03/21 02:06:16;;;;;;;32.92;19.25;;;9.30;99.90;;;;;;5070012;28;20070;-64
2023/03/21 02:08:42;;;;;;;36.05;18.90;;;9.40;99.90;;;;;;5052112;28;20036;-64
2023/03/21 02:11:09;;;;;;;33.97;17.98;;;9.30;99.90;;;;;;5071497;28;20435;-64
2023/03/21 02:13:44;;;;;;;32.60;16.75;;;9.30;99.90;;;;;;5054523;28;20032;-64
2023/03/21 02:16:31;;;;;;;30.20;16.83;;;9.40;99.90;;;;;;5070445;28;20489;-64
2023/03/21 02:19:25;;;;;;;36.25;17.48;;;9.40;99.90;;;;;;5071157;28;20545;-64
2023/03/21 02:22:18;;;;;;;41.88;18.35;;;9.40;99.90;;;;;;5070907;28;20047;-64
2023/03/21 02:25:09;;;;;;;31.77;17.38;;;9.40;99.90;;;;;;5069816;28;20088;-64
2023/03/21 02:28:00;;;;;;;29.67;16.42;;;9.40;99.90;;;;;;5069766;28;20555;-64
2023/03/21 02:30:52;;;;;;;33.35;17.23;;;9.40;99.90;;;;;;5071181;28;20040;-64
2023/03/21 02:33:43;;;;;;;36.28;18.23;;;9.30;99.90;;;;;;5069837;28;20067;-64
2023/03/21 02:36:16;;;;;;;31.90;16.95;;;9.40;99.90;;;;;;5037240;28;20056;-64
2023/03/21 02:39:25;;;;;;;37.95;18.02;;;9.40;99.90;;;;;;5069582;28;20044;-64
2023/03/21 02:42:09;;;;;;;36.83;17.33;;;9.40;99.90;;;;;;5069239;28;20388;-64
2023/03/21 02:44:49;;;;;;;39.08;17.30;;;9.40;99.90;;;;;;5053105;28;20076;-64
2023/03/21 02:47:28;;;;;;;39.00;17.52;;;9.40;99.90;;;;;;5069811;28;20032;-64
2023/03/21 02:50:19;;;;;;;34.20;17.27;;;9.40;99.90;;;;;;5069278;28;20048;-64
2023/03/21 02:52:51;;;;;;;44.20;18.48;;;9.40;99.90;;;;;;5010590;28;20046;-64
2023/03/21 02:55:29;;;;;;;44.38;18.83;;;9.40;99.90;;;;;;5011726;28;20108;-64
2023/03/21 02:57:58;;;;;;;33.95;16.17;;;9.40;99.90;;;;;;5010374;28;20433;-64
2023/03/21 03:00:30;;;;;;;35.22;17.50;;;9.40;99.90;;;;;;5010710;28;20053;-64
2023/03/21 03:03:02;;;;;;;38.08;16.80;;;9.40;99.90;;;;;;5027250;28;20045;-64
2023/03/21 03:05:38;;;;;;;34.25;15.52;;;9.40;99.90;;;;;;5011865;28;20041;-64
2023/03/21 03:11:37;;;;;;;31.73;15.90;;;9.40;99.90;;;;;;5027380;28;20747;-64
2023/03/21 03:14:24;;;;;;;35.15;16.73;;;9.40;99.90;;;;;;4996169;28;20057;-64
2023/03/21 03:17:08;;;;;;;46.05;17.45;;;9.40;99.90;;;;;;5026520;28;20140;-64
2023/03/21 03:20:04;;;;;;;32.83;16.90;;;9.40;99.90;;;;;;5011131;28;20037;-64
2023/03/21 03:22:58;;;;;;;41.08;15.93;;;9.40;99.90;;;;;;5024826;28;20052;-63
2023/03/21 03:25:55;;;;;;;43.67;19.02;;;9.30;99.90;;;;;;5010702;28;20045;-64
2023/03/21 03:28:30;;;;;;;42.00;19.67;;;9.40;99.90;;;;;;5027730;28;20511;-64
2023/03/21 03:31:00;;;;;;;39.42;17.95;;;9.40;99.90;;;;;;5066589;28;20048;-64
2023/03/21 03:33:28;;;;;;;39.10;17.38;;;9.30;99.90;;;;;;5069011;28;20052;-64
2023/03/21 03:35:59;;;;;;;36.47;16.40;;;9.40;99.90;;;;;;5067733;28;20678;-64
2023/03/21 03:38:30;;;;;;;45.03;19.58;;;9.40;99.90;;;;;;5068080;28;20094;-64
2023/03/21 03:41:25;;;;;;;37.60;18.30;;;9.30;99.90;;;;;;5070074;28;20762;-64
2023/03/21 03:43:59;;;;;;;40.53;18.70;;;9.40;99.90;;;;;;5069525;28;20489;-64
2023/03/21 03:46:38;;;;;;;37.72;18.90;;;9.30;99.90;;;;;;5035253;28;20041;-64
2023/03/21 03:49:14;;;;;;;39.45;17.67;;;9.30;99.90;;;;;;5069724;28;20040;-64
2023/03/21 03:51:52;;;;;;;36.85;18.25;;;9.40;99.90;;;;;;5051198;28;20048;-64
2023/03/21 03:54:24;;;;;;;41.40;19.13;;;9.30;99.90;;;;;;5069772;28;20048;-64
2023/03/21 03:56:53;;;;;;;36.00;20.05;;;9.40;99.90;;;;;;5068315;28;20055;-64
2023/03/21 03:59:24;;;;;;;41.20;18.57;;;9.40;99.90;;;;;;5051355;28;20049;-64
2023/03/21 04:02:02;;;;;;;38.67;19.83;;;9.40;99.90;;;;;;5068394;28;20036;-64
2023/03/21 04:04:30;;;;;;;39.90;19.75;;;9.40;99.90;;;;;;5035655;28;20440;-64
2023/03/21 04:07:10;;;;;;;43.97;20.65;;;9.40;99.90;;;;;;5067694;28;20080;-64
2023/03/21 04:09:37;;;;;;;37.95;19.60;;;9.40;99.90;;;;;;5068455;28;20393;-64
2023/03/21 04:12:09;;;;;;;43.63;21.42;;;9.40;99.90;;;;;;5052147;28;20079;-64
2023/03/21 04:14:39;;;;;;;48.22;20.98;;;9.40;99.90;;;;;;5067984;28;20083;-63
2023/03/21 04:17:10;;;;;;;39.33;19.23;;;9.40;99.90;;;;;;5052244;28;20048;-64
2023/03/21 04:19:41;;;;;;;45.65;21.73;;;9.40;99.90;;;;;;5069024;28;20557;-64
2023/03/21 04:22:11;;;;;;;47.58;20.48;;;9.40;99.90;;;;;;5071805;28;20052;-64
2023/03/21 04:24:56;;;;;;;46.38;20.73;;;9.40;99.90;;;;;;5056551;28;20060;-64
2023/03/21 04:27:26;;;;;;;45.42;20.80;;;9.40;99.90;;;;;;5069618;28;20449;-64
2023/03/21 04:29:56;;;;;;;45.53;21.05;;;9.40;99.90;;;;;;5039079;28;20094;-64
2023/03/21 04:32:25;;;;;;;47.15;19.15;;;9.40;99.90;;;;;;5073394;28;20053;-64
2023/03/21 04:34:53;;;;;;;43.28;21.70;;;9.40;99.90;;;;;;5071129;28;20554;-64
2023/03/21 04:37:27;;;;;;;53.13;21.08;;;9.40;99.90;;;;;;5072919;28;20131;-64
2023/03/21 04:39:59;;;;;;;45.47;20.40;;;9.40;99.90;;;;;;5073580;28;20463;-64
2023/03/21 04:42:27;;;;;;;39.75;17.88;;;9.40;99.90;;;;;;5071337;28;20048;-64
2023/03/21 04:44:59;;;;;;;49.92;19.80;;;9.40;99.90;;;;;;5071761;28;20493;-64
2023/03/21 04:47:28;;;;;;;63.42;22.00;;;9.40;99.90;;;;;;5040169;28;20036;-64
2023/03/21 04:49:58;;;;;;;43.88;19.35;;;9.40;99.90;;;;;;5072706;28;20408;-64
2023/03/21 04:52:25;;;;;;;44.97;17.80;;;9.40;99.90;;;;;;5071350;28;20070;-64
2023/03/21 04:55:01;;;;;;;43.83;19.75;;;9.40;99.90;;;;;;5071702;28;20087;-64
2023/03/21 04:57:40;;;;;;;44.95;18.42;;;9.40;99.90;;;;;;5071808;28;20489;-64
2023/03/21 05:00:13;;;;;;;48.67;20.77;;;9.40;99.90;;;;;;5072979;28;20056;-64
2023/03/21 05:02:39;;;;;;;42.70;18.50;;;9.40;99.90;;;;;;5038521;28;20056;-64
2023/03/21 05:05:10;;;;;;;50.17;21.15;;;9.40;99.90;;;;;;5072566;28;20059;-64
2023/03/21 05:07:40;;;;;;;;;;;9.40;99.90;;;;;;5073624;28;20040;-64
2023/03/21 05:10:11;;;;;;;43.95;21.08;;;9.40;99.90;;;;;;5072129;28;19916;-64
2023/03/21 05:12:38;;;;;;;;;;;9.40;99.90;;;;;;5055293;28;20090;-64
2023/03/21 05:15:07;;;;;;;46.55;21.38;;;9.40;99.90;;;;;;5071162;28;19920;-64
2023/03/21 05:17:37;;;;;;;49.78;22.30;;;9.40;99.90;;;;;;5054635;28;20045;-64
2023/03/21 05:20:10;;;;;;;45.47;23.42;;;9.40;99.90;;;;;;5055290;28;20123;-64
2023/03/21 05:22:39;;;;;;;47.53;21.65;;;9.40;99.90;;;;;;5070038;28;20485;-64
2023/03/21 05:25:11;;;;;;;60.13;25.15;;;9.40;99.90;;;;;;5070862;28;20128;-64
2023/03/21 05:27:44;;;;;;;50.00;22.52;;;9.40;99.90;;;;;;5054714;28;20095;-64
2023/03/21 05:30:16;;;;;;;;;;;9.40;99.90;;;;;;5038096;28;20037;-64
2023/03/21 05:32:45;;;;;;;54.60;24.38;;;9.30;99.90;;;;;;5070282;28;19921;-64
2023/03/21 05:35:12;;;;;;;57.33;24.35;;;9.40;99.90;;;;;;5071086;28;20119;-64
2023/03/21 05:37:38;;;;;;;55.85;25.58;;;9.40;99.90;;;;;;5037430;28;20102;-64
2023/03/21 05:40:13;;;;;;;77.95;29.48;;;9.40;99.90;;;;;;5071016;28;20052;-64
2023/03/21 05:42:39;;;;;;;68.75;27.90;;;9.40;99.90;;;;;;5071998;28;20084;-64
2023/03/21 05:45:07;;;;;;;64.72;28.33;;;9.40;99.90;;;;;;5071284;28;20048;-64
2023/03/21 05:47:42;;;;;;;73.30;30.58;;;9.40;99.90;;;;;;5070797;28;20083;-64
2023/03/21 05:50:10;;;;;;;57.55;25.90;;;9.40;99.90;;;;;;5065111;28;20044;-64
2023/03/21 05:52:38;;;;;;;61.40;27.13;;;9.40;99.90;;;;;;5050563;28;20080;-64
2023/03/21 05:55:11;;;;;;;61.30;26.60;;;9.40;99.90;;;;;;5034035;28;20060;-64
2023/03/21 05:57:41;;;;;;;63.95;27.35;;;9.40;99.90;;;;;;5050305;28;20457;-64
2023/03/21 06:00:24;;;;;;;53.25;25.83;;;9.40;99.90;;;;;;5035586;28;20064;-64
2023/03/21 06:02:58;;;;;;;53.92;27.20;;;9.40;99.90;;;;;;5035490;28;20041;-64
2023/03/21 06:05:31;;;;;;;58.45;27.55;;;9.40;99.90;;;;;;5048835;28;20064;-64
2023/03/21 06:08:04;;;;;;;61.05;26.25;;;9.40;99.90;;;;;;5051756;28;20064;-64
2023/03/21 06:10:31;;;;;;;50.45;24.35;;;9.40;99.90;;;;;;5033963;28;20041;-64
2023/03/21 06:13:00;;;;;;;51.08;24.80;;;9.40;99.90;;;;;;5050673;28;20037;-64
2023/03/21 06:15:45;;;;;;;51.55;24.60;;;9.40;99.90;;;;;;5047828;28;20500;-64
2023/03/21 06:18:17;;;;;;;52.15;25.23;;;9.40;99.90;;;;;;5049525;28;20502;-64
2023/03/21 06:20:45;;;;;;;48.47;21.75;;;9.40;99.90;;;;;;5033338;28;20040;-64
2023/03/21 06:23:36;;;;;;;42.08;21.98;;;9.40;99.90;;;;;;5051359;28;20084;-64
2023/03/21 06:26:21;;;;;;;45.88;22.42;;;9.40;99.90;;;;;;5050177;28;20144;-64
2023/03/21 06:29:06;;;;;;;56.40;24.25;;;9.40;99.90;;;;;;5050182;28;20145;-64
2023/03/21 06:31:34;;;;;;;41.28;21.38;;;9.40;99.90;;;;;;5050238;28;20084;-64
2023/03/21 06:34:00;;;;;;;44.03;22.55;;;9.50;99.90;;;;;;5068923;28;20040;-64
2023/03/21 06:36:26;;;;;;;36.45;19.67;;;9.50;99.90;;;;;;5069350;28;20044;-64
2023/03/21 06:38:52;;;;;;;42.60;20.70;;;9.50;99.90;;;;;;5070799;28;20680;-64
2023/03/21 06:41:20;;;;;;;46.17;22.33;;;9.50;99.90;;;;;;5069308;28;20071;-64
2023/03/21 06:43:50;;;;;;;35.63;19.92;;;9.50;99.90;;;;;;5070070;28;20045;-64
2023/03/21 06:46:19;;;;;;;36.75;19.35;;;9.50;99.90;;;;;;5053666;28;20552;-64
2023/03/21 06:48:45;;;;;;;31.10;18.60;;;9.50;99.90;;;;;;5068932;28;20121;-64
2023/03/21 06:51:13;;;;;;;28.70;16.75;;;9.50;99.90;;;;;;5069470;28;20097;-64
2023/03/21 06:53:40;;;;;;;32.63;18.30;;;9.50;99.90;;;;;;5068928;28;20044;-64
2023/03/21 06:56:10;;;;;;;33.95;16.50;;;9.50;99.90;;;;;;5069591;28;20048;-64
2023/03/21 06:58:37;;;;;;;29.63;17.70;;;9.50;99.90;;;;;;5070822;28;20060;-64
2023/03/21 07:01:04;;;;;;;26.90;15.98;;;9.50;99.90;;;;;;5068933;28;20052;-64
2023/03/21 07:03:30;;;;;;;28.92;16.90;;;9.50;99.90;;;;;;5068979;28;20473;-64
2023/03/21 07:05:56;;;;;;;26.48;15.32;;;9.50;99.90;;;;;;5070250;28;20116;-65
2023/03/21 07:08:23;;;;;;;26.50;16.25;;;9.50;99.90;;;;;;5068655;28;20162;-63
2023/03/21 07:10:49;;;;;;;24.75;15.45;;;9.50;99.90;;;;;;5070325;28;20047;-63
2023/03/21 07:13:15;;;;;;;26.83;15.73;;;9.50;99.90;;;;;;5070408;28;20033;-63
2023/03/21 07:15:41;;;;;;;29.90;17.65;;;9.50;99.90;;;;;;5051859;28;20501;-63
2023/03/21 07:18:08;;;;;;;23.15;14.90;;;9.50;99.90;;;;;;5070197;28;20040;-63
2023/03/21 07:20:36;;;;;;;24.50;15.10;;;9.50;99.90;;;;;;5054279;28;20045;-63
2023/03/21 07:23:02;;;;;;;23.58;13.73;;;9.50;99.90;;;;;;5049496;28;20596;-63
2023/03/21 07:25:29;;;;;;;24.33;13.27;;;9.60;99.90;;;;;;5049975;28;20460;-63
2023/03/21 07:27:55;;;;;;;20.42;13.85;;;9.60;99.90;;;;;;5049881;28;20060;-63
2023/03/21 07:30:21;;;;;;;22.45;14.82;;;9.60;99.90;;;;;;5048511;28;20044;-63
2023/03/21 07:32:47;;;;;;;22.83;14.18;;;9.60;99.90;;;;;;5048867;28;20119;-63
2023/03/21 07:35:15;;;;;;;19.40;14.02;;;9.60;99.90;;;;;;5049029;28;20060;-63
2023/03/21 07:37:41;;;;;;;20.67;12.23;;;9.60;99.90;;;;;;5048045;28;20051;-63
2023/03/21 07:40:09;;;;;;;22.10;13.60;;;9.60;99.90;;;;;;5049564;28;20049;-63
2023/03/21 07:42:35;;;;;;;21.92;13.43;;;9.60;99.90;;;;;;5049326;28;20037;-63
2023/03/21 07:45:03;;;;;;;19.25;12.30;;;9.60;99.90;;;;;;5049659;28;20136;-63
2023/03/21 07:47:30;;;;;;;21.92;12.95;;;9.60;99.90;;;;;;5048449;28;20077;-64
2023/03/21 07:49:56;;;;;;;27.20;15.52;;;9.60;99.90;;;;;;5049382;28;20045;-63
2023/03/21 07:52:22;;;;;;;21.52;14.43;;;9.60;99.90;;;;;;5032119;28;20561;-63
2023/03/21 07:54:48;;;;;;;24.13;16.08;;;9.60;99.90;;;;;;5049600;28;20354;-63
2023/03/21 07:57:14;;;;;;;28.17;16.65;;;9.60;99.90;;;;;;5049270;28;20041;-63
2023/03/21 07:59:40;;;;;;;24.50;16.52;;;9.60;99.90;;;;;;5043335;28;20045;-63
2023/03/21 08:02:06;;;;;;;28.08;16.20;;;9.60;99.90;;;;;;5048354;28;20462;-63
2023/03/21 08:04:33;;;;;;;29.13;18.85;;;9.60;99.90;;;;;;5049026;28;20077;-63
2023/03/21 08:06:59;;;;;;;32.10;17.65;;;9.60;99.90;;;;;;5049488;28;20409;-63
2023/03/21 08:09:25;;;;;;;29.13;16.90;;;9.60;99.90;;;;;;5048578;28;20131;-63
2023/03/21 08:11:51;;;;;;;29.00;19.15;;;9.60;99.90;;;;;;5047681;28;20473;-63
2023/03/21 08:14:16;;;;;;;32.67;19.20;;;9.60;99.90;;;;;;5047289;28;20080;-63
2023/03/21 08:16:42;;;;;;;42.15;22.92;;;9.60;99.90;;;;;;5048310;28;20041;-63
2023/03/21 08:19:08;;;;;;;30.73;17.45;;;9.60;99.90;;;;;;5048944;28;20054;-64
2023/03/21 08:21:36;;;;;;;32.15;18.05;;;9.70;99.90;;;;;;5048038;28;20052;-64
2023/03/21 08:24:02;;;;;;;34.03;20.75;;;9.70;99.90;;;;;;5049474;28;20055;-63
2023/03/21 08:26:28;;;;;;;31.83;19.75;;;9.70;99.90;;;;;;5048633;28;20061;-65
2023/03/21 08:28:54;;;;;;;27.88;16.45;;;9.70;99.90;;;;;;5047941;28;20146;-64
2023/03/21 08:31:20;;;;;;;31.05;20.80;;;9.70;99.90;;;;;;5045276;28;20038;-64
2023/03/21 08:33:49;;;;;;;31.73;20.83;;;9.70;99.90;;;;;;5060651;28;20606;-64
2023/03/21 08:36:15;;;;;;;30.70;17.60;;;9.70;99.90;;;;;;5027941;28;20053;-64
2023/03/21 08:38:41;;;;;;;28.92;17.42;;;9.70;99.90;;;;;;5028829;28;20041;-64
2023/03/21 08:41:07;;;;;;;23.48;14.90;;;9.70;99.90;;;;;;5061166;28;20128;-64
2023/03/21 08:43:32;;;;;;;36.70;17.95;;;9.70;99.90;;;;;;5027849;28;20052;-64
2023/03/21 08:45:58;;;;;;;27.08;15.63;;;9.70;99.90;;;;;;5028934;28;20049;-64
2023/03/21 08:48:24;;;;;;;26.13;16.45;;;9.70;99.90;;;;;;5061268;28;20550;-64
2023/03/21 08:50:50;;;;;;;37.78;21.25;;;9.70;99.90;;;;;;5029450;28;20040;-63
2023/03/21 08:53:15;;;;;;;27.83;16.15;;;9.60;99.90;;;;;;5038634;28;20056;-63
2023/03/21 08:55:43;;;;;;;28.10;16.02;;;9.60;99.90;;;;;;5060261;28;20080;-64
2023/03/21 08:58:09;;;;;;;30.98;15.02;;;9.60;99.90;;;;;;5047792;28;20148;-63
2023/03/21 09:00:35;;;;;;;26.27;15.18;;;9.60;99.90;;;;;;5047344;28;20183;-63
2023/03/21 09:03:00;;;;;;;25.10;15.38;;;9.60;99.90;;;;;;5048937;28;20393;-64
2023/03/21 09:05:27;;;;;;;25.00;13.63;;;9.60;99.90;;;;;;5049116;28;20045;-64
2023/03/21 09:07:53;;;;;;;25.88;15.65;;;9.60;99.90;;;;;;5051426;28;20037;-63
2023/03/21 09:10:21;;;;;;;28.40;17.20;;;9.60;99.90;;;;;;5052852;28;20084;-63
2023/03/21 09:12:48;;;;;;;33.92;18.23;;;9.60;99.90;;;;;;5052623;28;20051;-63
2023/03/21 09:15:14;;;;;;;28.08;15.32;;;9.70;99.90;;;;;;5052087;28;20711;-64
2023/03/21 09:17:51;;;;;;;28.15;15.07;;;9.70;99.90;;;;;;5052616;28;20051;-63
2023/03/21 09:20:19;;;;;;;30.52;16.90;;;9.70;99.90;;;;;;5051259;28;20082;-63
2023/03/21 09:22:46;;;;;;;21.85;12.52;;;9.70;99.90;;;;;;5034390;28;20373;-63
2023/03/21 09:25:14;;;;;;;21.75;12.20;;;9.70;99.90;;;;;;5051066;28;20045;-62
2023/03/21 09:27:42;;;;;;;25.10;14.30;;;9.70;99.90;;;;;;5048042;28;20067;-63
2023/03/21 09:30:09;;;;;;;25.77;14.77;;;9.60;99.90;;;;;;5051126;28;20040;-62
2023/03/21 09:32:36;;;;;;;22.92;14.40;;;9.60;99.90;;;;;;5051084;28;20045;-63
2023/03/21 09:35:04;;;;;;;24.27;14.02;;;9.70;99.90;;;;;;5050391;28;20056;-62
2023/03/21 09:37:31;;;;;;;29.08;15.77;;;9.60;99.90;;;;;;5052292;28;20087;-65
2023/03/21 09:39:57;;;;;;;23.63;13.40;;;9.70;99.90;;;;;;5051430;28;20120;-63
2023/03/21 09:42:44;;;;;;;31.77;16.23;;;9.70;99.90;;;;;;5051651;28;20547;-63
2023/03/21 09:45:20;;;;;;;24.00;14.48;;;9.70;99.90;;;;;;5051942;28;20037;-62
2023/03/21 09:47:52;;;;;;;18.85;9.65;;;9.80;99.90;;;;;;5052141;28;20481;-63
2023/03/21 09:50:26;;;;;;;24.38;12.43;;;9.80;99.90;;;;;;5050426;28;20036;-62
2023/03/21 09:52:59;;;;;;;29.00;15.75;;;9.80;99.90;;;;;;5051803;28;20549;-62
2023/03/21 09:55:36;;;;;;;23.15;12.95;;;9.80;99.90;;;;;;5052294;28;20039;-63
2023/03/21 09:58:25;;;;;;;24.00;10.98;;;9.90;99.90;;;;;;5051198;28;20142;-64
2023/03/21 10:00:55;;;;;;;28.65;12.80;;;9.90;99.90;;;;;;5052605;28;20588;-63
2023/03/21 10:03:30;;;;;;;25.40;12.77;;;10.00;99.90;;;;;;5051795;28;20032;-63
2023/03/21 10:06:00;;;;;;;18.88;9.23;;;9.90;99.90;;;;;;5052665;28;20045;-63
2023/03/21 10:08:36;;;;;;;20.15;11.50;;;10.00;99.90;;;;;;5052439;28;20101;-63
2023/03/21 10:11:17;;;;;;;21.85;11.80;;;9.90;99.90;;;;;;5070392;28;20043;-63
2023/03/21 10:13:56;;;;;;;22.92;12.82;;;10.00;99.90;;;;;;5058313;28;20037;-62
2023/03/21 10:16:31;;;;;;;20.70;14.43;;;10.00;99.90;;;;;;5052719;28;20486;-63
2023/03/21 10:19:01;;;;;;;26.60;13.13;;;10.00;99.90;;;;;;5052281;28;20045;-62
2023/03/21 10:21:28;;;;;;;22.58;11.52;;;10.10;99.90;;;;;;5084833;28;20037;-63
2023/03/21 10:23:56;;;;;;;21.35;12.50;;;10.20;99.90;;;;;;5049547;28;20505;-62
2023/03/21 10:26:26;;;;;;;24.50;12.52;;;10.20;99.90;;;;;;5033244;28;20099;-63
2023/03/21 10:28:56;;;;;;;19.95;11.93;;;10.40;99.90;;;;;;5048984;28;20116;-64
2023/03/21 10:31:27;;;;;;;25.20;13.70;;;10.40;99.90;;;;;;5049607;28;20367;-64
2023/03/21 10:33:56;;;;;;;23.73;14.05;;;10.50;99.90;;;;;;5049314;28;20059;-64
2023/03/21 10:36:30;;;;;;;18.25;9.18;;;10.60;99.90;;;;;;5049327;28;20059;-63
2023/03/21 10:39:04;;;;;;;21.88;11.98;;;10.60;99.90;;;;;;5032167;28;20063;-62
2023/03/21 10:41:31;;;;;;;16.13;9.88;;;10.70;99.90;;;;;;5050577;28;20059;-63
2023/03/21 10:44:07;;;;;;;21.25;10.70;;;10.80;99.90;;;;;;5049453;28;20083;-63
2023/03/21 10:46:34;;;;;;;19.13;11.45;;;10.80;99.90;;;;;;5049085;28;20051;-64
2023/03/21 10:49:00;;;;;;;23.45;10.82;;;10.80;99.90;;;;;;5083931;28;20044;-64
2023/03/21 10:51:30;;;;;;;18.58;10.85;;;10.90;99.90;;;;;;5083615;28;20482;-63
2023/03/21 10:54:10;;;;;;;18.35;10.32;;;10.90;99.90;;;;;;5050011;28;20064;-63
2023/03/21 10:56:49;;;;;;;15.05;9.75;;;11.00;99.90;;;;;;5050367;28;20084;-63
2023/03/21 10:59:19;;;;;;;16.53;8.47;;;11.10;99.90;;;;;;5055274;28;20040;-63
2023/03/21 11:01:51;;;;;;;22.35;11.05;;;11.20;99.90;;;;;;5071543;28;20048;-64
2023/03/21 11:04:21;;;;;;;15.15;9.23;;;11.30;99.90;;;;;;5071353;28;20073;-63
2023/03/21 11:06:56;;;;;;;19.83;8.38;;;11.40;99.90;;;;;;5069554;28;20067;-64
2023/03/21 11:09:24;;;;;;;15.40;10.25;;;11.40;99.90;;;;;;5071089;28;20079;-64
2023/03/21 11:12:08;;;;;;;16.58;11.00;;;11.60;99.90;;;;;;5069739;28;20052;-65
2023/03/21 11:14:43;;;;;;;14.10;8.70;;;11.60;99.90;;;;;;5069210;28;20048;-65
2023/03/21 11:17:27;;;;;;;18.02;10.02;;;11.80;99.90;;;;;;5053002;28;20036;-65
2023/03/21 11:19:59;;;;;;;18.98;10.43;;;11.80;99.90;;;;;;5069315;28;20389;-66
2023/03/21 11:22:29;;;;;;;10.85;5.55;;;11.80;99.90;;;;;;5069950;28;20138;-65
2023/03/21 11:25:05;;;;;;;11.52;7.88;;;11.80;99.90;;;;;;5070897;28;20110;-66
2023/03/21 11:27:31;;;;;;;14.63;10.75;;;11.80;99.90;;;;;;5068774;28;20516;-66
2023/03/21 11:29:59;;;;;;;13.95;8.15;;;11.70;99.90;;;;;;5069016;28;20037;-66
2023/03/21 11:32:29;;;;;;;11.07;7.32;;;11.70;99.90;;;;;;5069360;28;20047;-65
2023/03/21 11:35:12;;;;;;;16.63;8.55;;;11.70;99.90;;;;;;5052488;28;20496;-65
2023/03/21 11:37:46;;;;;;;15.00;7.40;;;11.70;99.90;;;;;;5069764;28;20504;-67
2023/03/21 11:40:28;;;;;;;14.63;5.50;;;11.70;99.90;;;;;;5052955;28;20547;-65
2023/03/21 11:42:57;;;;;;;15.57;7.65;;;11.70;99.90;;;;;;5069080;28;20044;-65
2023/03/21 11:45:25;;;;;;;13.48;5.28;;;11.70;99.90;;;;;;5070833;28;20040;-65
2023/03/21 11:47:53;;;;;;;12.38;8.15;;;11.70;99.90;;;;;;5068981;28;20040;-65
2023/03/21 11:50:32;;;;;;;15.98;7.90;;;11.80;99.90;;;;;;5070828;28;20040;-66
2023/03/21 11:53:05;;;;;;;14.25;7.90;;;11.80;99.90;;;;;;5069546;28;20625;-65
2023/03/21 11:55:36;;;;;;;12.73;7.40;;;12.00;99.90;;;;;;5068874;28;20044;-65
2023/03/21 11:58:44;;;;;;;15.75;8.30;;;12.00;99.90;;;;;;5069653;28;20145;-65
2023/03/21 12:01:18;;;;;;;13.13;6.75;;;11.90;99.90;;;;;;5028065;28;20033;-65
2023/03/21 12:03:46;;;;;;;12.75;8.48;;;11.80;99.90;;;;;;5010676;28;20048;-65
2023/03/21 12:06:44;;;;;;;14.48;8.25;;;11.70;99.90;;;;;;5007172;28;20053;-65
2023/03/21 12:09:30;;;;;;;13.45;7.68;;;11.60;99.90;;;;;;4977067;28;20057;-65
2023/03/21 12:12:06;;;;;;;11.27;7.97;;;11.50;99.90;;;;;;5007329;28;20053;-65
2023/03/21 12:14:55;;;;;;;15.38;9.30;;;11.50;99.90;;;;;;4990880;28;20046;-66
2023/03/21 12:17:54;;;;;;;15.88;8.00;;;11.50;99.90;;;;;;5023268;28;20085;-66
2023/03/21 12:20:22;;;;;;;16.05;8.80;;;11.60;99.90;;;;;;4990829;28;20041;-65
2023/03/21 12:23:03;;;;;;;17.63;9.40;;;11.60;99.90;;;;;;4990239;28;20053;-65
2023/03/21 12:25:40;;;;;;;12.48;7.68;;;11.60;99.90;;;;;;4990560;28;20113;-65
2023/03/21 12:28:21;;;;;;;15.68;8.95;;;11.70;99.90;;;;;;5007153;28;20062;-65
2023/03/21 12:31:05;;;;;;;13.50;7.57;;;11.70;99.90;;;;;;5023253;28;20522;-65
2023/03/21 12:33:39;;;;;;;14.60;8.63;;;11.70;99.90;;;;;;5048186;28;20048;-66
2023/03/21 12:36:09;;;;;;;15.52;8.32;;;11.80;99.90;;;;;;5048051;28;20084;-65
2023/03/21 12:38:41;;;;;;;13.73;8.10;;;11.90;99.90;;;;;;5047531;28;20051;-66
2023/03/21 12:41:34;;;;;;;13.60;7.22;;;12.10;99.90;;;;;;5049206;28;20503;-65
2023/03/21 12:44:11;;;;;;;15.02;7.15;;;12.20;99.90;;;;;;5052934;28;20051;-65
2023/03/21 12:46:48;;;;;;;11.82;7.10;;;12.20;99.90;;;;;;5051781;28;20136;-66
2023/03/21 12:49:32;;;;;;;17.60;8.63;;;12.30;99.90;;;;;;5085508;28;20047;-66
2023/03/21 12:52:10;;;;;;;15.63;8.15;;;12.30;99.90;;;;;;5035168;28;20366;-66
2023/03/21 12:54:58;;;;;;;17.60;9.13;;;12.40;99.90;;;;;;5052757;28;20086;-66
2023/03/21 12:57:56;;;;;;;14.35;6.85;;;12.60;99.90;;;;;;5052702;28;20045;-66
2023/03/21 13:00:54;;;;;;;16.98;9.15;;;12.70;99.90;;;;;;5043234;28;20162;-66
2023/03/21 13:03:32;;;;;;;15.93;9.05;;;12.80;99.90;;;;;;5053781;28;20044;-66
2023/03/21 13:06:11;;;;;;;16.75;8.68;;;12.90;99.90;;;;;;5051687;28;20505;-66
2023/03/21 13:08:43;;;;;;;15.55;9.65;;;12.90;99.90;;;;;;5052498;28;20041;-66
2023/03/21 13:11:14;;;;;;;13.55;9.07;;;12.90;99.90;;;;;;5052313;28;20037;-66